Time;durP1;ratioP1;P1;durP2;ratioP2;P2;SDS_P1;SDS_P2;PMS_P1;PMS_P2;Temp;Humidity;BMP_temperature;BMP_pressure;BME280_temperature;BME280_humidity;BME280_pressure;Samples;Min_cycle;Max_cycle;Signal;HPM_P1;HPM_P2
2023/02/22 00:00:26;;;;;;;84.70;34.42;;;9.70;99.90;;;;;;4658684;30;20213;-77
2023/02/22 00:02:58;;;;;;;80.50;33.17;;;9.70;99.90;;;;;;4644731;30;20556;-78
2023/02/22 00:05:26;;;;;;;79.97;32.45;;;9.70;99.90;;;;;;4657869;30;20810;-77
2023/02/22 00:07:55;;;;;;;78.10;30.90;;;9.70;99.90;;;;;;4657294;30;20212;-75
2023/02/22 00:10:22;;;;;;;80.45;31.70;;;9.70;99.90;;;;;;4642237;30;20659;-81
2023/02/22 00:12:51;;;;;;;81.63;32.28;;;9.70;99.90;;;;;;4656841;30;20259;-77
2023/02/22 00:15:20;;;;;;;77.22;30.48;;;9.70;99.90;;;;;;4655322;30;20272;-76
2023/02/22 00:17:46;;;;;;;71.07;29.63;;;9.70;99.90;;;;;;4652522;30;20758;-76
2023/02/22 00:20:14;;;;;;;77.10;31.75;;;9.70;99.90;;;;;;4641197;30;20205;-77
2023/02/22 00:22:41;;;;;;;76.65;31.58;;;9.70;99.90;;;;;;4655288;30;20272;-78
2023/02/22 00:25:08;;;;;;;68.47;28.77;;;9.70;99.90;;;;;;4654416;30;20204;-81
2023/02/22 00:27:34;;;;;;;70.43;28.33;;;9.70;99.90;;;;;;4653021;30;20226;-76
2023/02/22 00:30:00;;;;;;;68.07;28.77;;;9.70;99.90;;;;;;4653653;30;20189;-79
2023/02/22 00:32:26;;;;;;;64.40;27.67;;;9.70;99.90;;;;;;4654530;30;20679;-78
2023/02/22 00:34:53;;;;;;;68.82;27.65;;;9.70;99.90;;;;;;4654196;30;20255;-76
2023/02/22 00:37:19;;;;;;;69.40;29.30;;;9.70;99.90;;;;;;4647561;30;20703;-80
2023/02/22 00:39:49;;;;;;;64.63;28.23;;;9.70;99.90;;;;;;4651462;30;20233;-79
2023/02/22 00:42:16;;;;;;;69.28;28.27;;;9.70;99.90;;;;;;4638566;30;20198;-78
2023/02/22 00:44:43;;;;;;;76.05;30.42;;;9.70;99.90;;;;;;4651957;30;22254;-77
2023/02/22 00:47:11;;;;;;;65.82;28.60;;;9.70;99.90;;;;;;4638933;30;20236;-77
2023/02/22 00:49:37;;;;;;;77.15;29.30;;;9.70;99.90;;;;;;4650093;30;21848;-77
2023/02/22 00:52:03;;;;;;;67.50;28.70;;;9.70;99.90;;;;;;4639945;30;20552;-78
2023/02/22 00:54:29;;;;;;;69.53;28.25;;;9.60;99.90;;;;;;4629389;30;20274;-79
2023/02/22 00:56:57;;;;;;;70.07;29.40;;;9.60;99.90;;;;;;4647038;30;20268;-77
2023/02/22 00:59:23;;;;;;;73.43;30.05;;;9.70;99.90;;;;;;4648952;30;20247;-80
2023/02/22 01:01:49;;;;;;;69.18;28.05;;;9.60;99.90;;;;;;4653228;30;20196;-76
2023/02/22 01:04:15;;;;;;;69.97;28.60;;;9.60;99.90;;;;;;4654033;30;20644;-76
2023/02/22 01:06:41;;;;;;;66.25;27.70;;;9.60;99.90;;;;;;4653579;30;20267;-78
2023/02/22 01:09:06;;;;;;;63.92;27.67;;;9.60;99.90;;;;;;4622614;30;20686;-77
2023/02/22 01:11:32;;;;;;;63.50;26.35;;;9.70;99.90;;;;;;4651611;30;20197;-77
2023/02/22 01:14:00;;;;;;;68.43;27.02;;;9.60;99.90;;;;;;4653981;30;20240;-77
2023/02/22 01:16:26;;;;;;;67.55;27.75;;;9.60;99.90;;;;;;4655610;30;21148;-77
2023/02/22 01:18:52;;;;;;;64.70;26.13;;;9.60;99.90;;;;;;4653190;30;20216;-76
2023/02/22 01:21:18;;;;;;;66.55;26.67;;;9.60;99.90;;;;;;4652559;30;20447;-79
2023/02/22 01:23:45;;;;;;;59.65;25.85;;;9.60;99.90;;;;;;4653153;30;20228;-76
2023/02/22 01:26:11;;;;;;;61.60;24.50;;;9.60;99.90;;;;;;4652354;30;20200;-76
2023/02/22 01:28:38;;;;;;;59.78;25.98;;;9.60;99.90;;;;;;4653551;30;20201;-78
2023/02/22 01:31:04;;;;;;;53.10;23.13;;;9.60;99.90;;;;;;4648541;30;20245;-76
2023/02/22 01:33:30;;;;;;;51.38;23.50;;;9.60;99.90;;;;;;4637991;30;20332;-78
2023/02/22 01:35:57;;;;;;;55.78;24.13;;;9.60;99.90;;;;;;4646899;30;20663;-76
2023/02/22 01:38:22;;;;;;;48.63;22.30;;;9.60;99.90;;;;;;4652542;30;20228;-79
2023/02/22 01:40:50;;;;;;;48.53;22.88;;;9.60;99.90;;;;;;4638165;30;20531;-78
2023/02/22 01:43:20;;;;;;;50.00;22.08;;;9.60;99.90;;;;;;4642503;30;20950;-76
2023/02/22 01:46:02;;;;;;;47.10;22.20;;;9.60;99.90;;;;;;4652396;30;20359;-75
2023/02/22 01:48:47;;;;;;;47.80;22.90;;;9.50;99.90;;;;;;4652319;30;20201;-78
2023/02/22 01:51:24;;;;;;;45.83;21.60;;;9.50;99.90;;;;;;4652286;30;20781;-82
2023/02/22 01:53:53;;;;;;;40.78;19.40;;;9.60;99.90;;;;;;4649854;30;20202;-79
2023/02/22 01:56:20;;;;;;;38.90;18.38;;;9.60;99.90;;;;;;4652959;30;20709;-80
2023/02/22 01:58:51;;;;;;;39.85;18.92;;;9.50;99.90;;;;;;4628822;30;20670;-81
2023/02/22 02:01:19;;;;;;;40.10;18.90;;;9.60;99.90;;;;;;4639148;30;20194;-79
2023/02/22 02:03:47;;;;;;;34.33;18.17;;;9.60;99.90;;;;;;4636289;30;20260;-79
2023/02/22 02:06:17;;;;;;;41.65;18.73;;;9.60;99.90;;;;;;4637135;30;20728;-75
2023/02/22 02:08:57;;;;;;;39.08;18.42;;;9.50;99.90;;;;;;4636362;30;20200;-78
2023/02/22 02:11:24;;;;;;;38.75;19.00;;;9.50;99.90;;;;;;4651790;30;20212;-77
2023/02/22 02:13:54;;;;;;;40.92;19.77;;;9.60;99.90;;;;;;4650984;30;20243;-77
2023/02/22 02:16:33;;;;;;;36.40;18.98;;;9.50;99.90;;;;;;4654461;30;22293;-75
2023/02/22 02:18:59;;;;;;;41.10;19.00;;;9.60;99.90;;;;;;4652108;30;20298;-78
2023/02/22 02:21:49;;;;;;;38.47;18.90;;;9.50;99.90;;;;;;4652820;30;20214;-79
2023/02/22 02:24:49;;;;;;;38.60;19.45;;;9.50;99.90;;;;;;4642995;30;20222;-80
2023/02/22 02:27:51;;;;;;;38.95;19.70;;;9.50;99.90;;;;;;4626835;30;20212;-79
2023/02/22 02:30:35;;;;;;;36.75;19.23;;;9.60;99.90;;;;;;4646768;30;20340;-75
2023/02/22 02:33:24;;;;;;;42.30;20.23;;;9.60;99.90;;;;;;4652090;30;20184;-75
2023/02/22 02:36:22;;;;;;;41.70;20.13;;;9.50;99.90;;;;;;4651438;30;20203;-78
2023/02/22 02:39:18;;;;;;;39.30;19.63;;;9.60;99.90;;;;;;4652041;30;20212;-76
2023/02/22 02:41:49;;;;;;;42.17;21.08;;;9.60;99.90;;;;;;4652729;30;20205;-79
2023/02/22 02:44:45;;;;;;;40.70;20.27;;;9.50;99.90;;;;;;4650181;30;20205;-79
2023/02/22 02:47:27;;;;;;;44.28;21.08;;;9.50;99.90;;;;;;4641525;30;20427;-79
2023/02/22 02:50:05;;;;;;;42.38;21.88;;;9.50;99.90;;;;;;4638686;30;21862;-77
2023/02/22 02:52:33;;;;;;;45.20;22.40;;;9.50;99.90;;;;;;4649530;30;20182;-78
2023/02/22 02:55:01;;;;;;;44.75;23.35;;;9.50;99.90;;;;;;4649931;30;20299;-76
2023/02/22 02:57:27;;;;;;;42.85;21.90;;;9.50;99.90;;;;;;4653336;30;20220;-79
2023/02/22 02:59:53;;;;;;;41.75;21.38;;;9.50;99.90;;;;;;4652546;30;20201;-77
2023/02/22 03:02:27;;;;;;;45.03;22.05;;;9.50;99.90;;;;;;4627872;30;20205;-76
2023/02/22 03:05:26;;;;;;;41.60;22.70;;;9.50;99.90;;;;;;4624143;30;20199;-80
2023/02/22 03:08:08;;;;;;;42.13;22.52;;;9.50;99.90;;;;;;4649739;30;20201;-77
2023/02/22 03:10:45;;;;;;;46.75;23.17;;;9.50;99.90;;;;;;4651908;30;20674;-79
2023/02/22 03:13:24;;;;;;;44.72;22.63;;;9.50;99.90;;;;;;4650673;30;20215;-78
2023/02/22 03:16:03;;;;;;;47.45;23.42;;;9.50;99.90;;;;;;4633264;30;20196;-77
2023/02/22 03:19:04;;;;;;;45.70;22.88;;;9.50;99.90;;;;;;4641718;30;20341;-78
2023/02/22 03:22:09;;;;;;;49.65;22.73;;;9.40;99.90;;;;;;4647832;30;20220;-75
2023/02/22 03:24:44;;;;;;;48.50;22.50;;;9.50;99.90;;;;;;4632748;30;20288;-77
2023/02/22 03:27:20;;;;;;;46.72;21.83;;;9.40;99.90;;;;;;4635160;30;20197;-79
2023/02/22 03:29:50;;;;;;;47.08;23.80;;;9.40;99.90;;;;;;4636319;30;20663;-78
2023/02/22 03:32:24;;;;;;;45.80;23.10;;;9.40;99.90;;;;;;4650295;30;20746;-77
2023/02/22 03:35:06;;;;;;;46.75;22.98;;;9.40;99.90;;;;;;4625576;30;20185;-79
2023/02/22 03:37:39;;;;;;;45.85;23.10;;;9.40;99.90;;;;;;4627662;30;20247;-78
2023/02/22 03:40:15;;;;;;;51.17;24.17;;;9.40;99.90;;;;;;4636275;30;20284;-79
2023/02/22 03:42:53;;;;;;;53.55;24.67;;;9.40;99.90;;;;;;4629300;30;20190;-79
2023/02/22 03:45:27;;;;;;;48.88;23.60;;;9.40;99.90;;;;;;4633684;30;20196;-79
2023/02/22 03:48:03;;;;;;;45.78;23.80;;;9.40;99.90;;;;;;4626713;30;20237;-77
2023/02/22 03:50:35;;;;;;;48.30;24.10;;;9.40;99.90;;;;;;4628335;30;20193;-77
2023/02/22 03:53:01;;;;;;;50.78;24.95;;;9.30;99.90;;;;;;4627189;30;20200;-77
2023/02/22 03:55:30;;;;;;;54.13;26.42;;;9.30;99.90;;;;;;4636260;30;20200;-79
2023/02/22 03:57:59;;;;;;;54.17;26.30;;;9.30;99.90;;;;;;4638075;30;20260;-79
2023/02/22 04:00:29;;;;;;;55.85;26.05;;;9.30;99.90;;;;;;4627704;30;20618;-77
2023/02/22 04:02:57;;;;;;;56.30;26.58;;;9.30;99.90;;;;;;4636526;30;22275;-77
2023/02/22 04:05:23;;;;;;;53.90;25.38;;;9.30;99.90;;;;;;4648399;30;20278;-77
2023/02/22 04:07:54;;;;;;;55.28;26.13;;;9.30;99.90;;;;;;4628662;30;20286;-79
2023/02/22 04:10:21;;;;;;;55.25;27.08;;;9.40;99.90;;;;;;4635941;30;20238;-82
2023/02/22 04:12:49;;;;;;;54.22;25.42;;;9.40;99.90;;;;;;4650039;30;20196;-77
2023/02/22 04:15:19;;;;;;;50.90;25.63;;;9.30;99.90;;;;;;4629178;30;20201;-79
2023/02/22 04:17:45;;;;;;;55.58;26.77;;;9.30;99.90;;;;;;4648192;30;20301;-82
2023/02/22 04:20:14;;;;;;;51.08;25.65;;;9.30;99.90;;;;;;4652293;30;20252;-79
2023/02/22 04:22:47;;;;;;;52.20;26.35;;;9.30;99.90;;;;;;4641719;30;20627;-77
2023/02/22 04:25:14;;;;;;;55.55;26.50;;;9.30;99.90;;;;;;4636803;30;20203;-76
2023/02/22 04:27:40;;;;;;;56.55;26.70;;;9.30;99.90;;;;;;4639054;30;20205;-78
2023/02/22 04:30:06;;;;;;;54.90;26.80;;;9.30;99.90;;;;;;4653226;30;20205;-81
2023/02/22 04:32:35;;;;;;;59.40;27.52;;;9.30;99.90;;;;;;4640917;30;20198;-77
2023/02/22 04:35:01;;;;;;;58.10;28.75;;;9.30;99.90;;;;;;4643167;30;20228;-78
2023/02/22 04:37:28;;;;;;;62.80;28.80;;;9.30;99.90;;;;;;4639220;30;20231;-78
2023/02/22 04:39:55;;;;;;;63.25;30.98;;;9.30;99.90;;;;;;4640263;30;20209;-77
2023/02/22 04:42:20;;;;;;;60.08;27.77;;;9.30;99.90;;;;;;4640857;30;20840;-77
2023/02/22 04:44:46;;;;;;;60.28;29.13;;;9.30;99.90;;;;;;4637669;30;20304;-79
2023/02/22 04:47:12;;;;;;;59.42;28.83;;;9.30;99.90;;;;;;4638932;30;20247;-76
2023/02/22 04:49:38;;;;;;;62.92;30.40;;;9.30;99.90;;;;;;4619474;30;20287;-77
2023/02/22 04:52:04;;;;;;;67.72;33.20;;;9.30;99.90;;;;;;4649101;30;20425;-77
2023/02/22 04:54:34;;;;;;;65.72;33.00;;;9.20;99.90;;;;;;4640759;30;20213;-75
2023/02/22 04:57:00;;;;;;;67.43;31.48;;;9.30;99.90;;;;;;4642813;30;20213;-77
2023/02/22 04:59:26;;;;;;;65.75;31.02;;;9.30;99.90;;;;;;4648876;30;20247;-77
2023/02/22 05:01:55;;;;;;;68.03;33.40;;;9.20;99.90;;;;;;4631155;30;20332;-78
2023/02/22 05:04:21;;;;;;;71.63;33.25;;;9.30;99.90;;;;;;4653493;30;20506;-79
2023/02/22 05:06:47;;;;;;;77.22;34.50;;;9.20;99.90;;;;;;4651911;30;20209;-77
2023/02/22 05:09:13;;;;;;;70.05;33.55;;;9.20;99.90;;;;;;4646981;30;20208;-77
2023/02/22 05:11:39;;;;;;;64.97;32.63;;;9.20;99.90;;;;;;4651433;30;20193;-76
2023/02/22 05:14:05;;;;;;;68.80;31.83;;;9.20;99.90;;;;;;4652779;30;20216;-79
2023/02/22 05:16:31;;;;;;;68.80;31.52;;;9.20;99.90;;;;;;4654420;30;20284;-76
2023/02/22 05:18:56;;;;;;;66.75;30.60;;;9.20;99.90;;;;;;4652305;30;20253;-77
2023/02/22 05:21:22;;;;;;;68.10;28.77;;;9.20;99.90;;;;;;4651267;30;20295;-81
2023/02/22 05:23:48;;;;;;;65.72;30.40;;;9.20;99.90;;;;;;4652689;30;20209;-77
2023/02/22 05:26:14;;;;;;;62.47;28.40;;;9.20;99.90;;;;;;4653142;30;20571;-81
2023/02/22 05:28:39;;;;;;;68.88;30.48;;;9.20;99.90;;;;;;4637153;30;20213;-77
2023/02/22 05:31:08;;;;;;;74.45;32.22;;;9.20;99.90;;;;;;4647495;30;20267;-81
2023/02/22 05:33:34;;;;;;;72.32;30.80;;;9.10;99.90;;;;;;4651101;30;20197;-77
2023/02/22 05:36:00;;;;;;;72.10;32.75;;;9.10;99.90;;;;;;4652562;30;20284;-76
2023/02/22 05:38:25;;;;;;;78.57;34.63;;;9.10;99.90;;;;;;4651838;30;21212;-80
2023/02/22 05:40:51;;;;;;;76.05;34.00;;;9.10;99.90;;;;;;4652529;30;20727;-78
2023/02/22 05:43:17;;;;;;;77.28;33.55;;;9.20;99.90;;;;;;4651891;30;20316;-80
2023/02/22 05:45:43;;;;;;;73.40;33.92;;;9.10;99.90;;;;;;4647508;30;20214;-76
2023/02/22 05:48:08;;;;;;;75.80;34.22;;;9.20;99.90;;;;;;4650925;30;20217;-80
2023/02/22 05:50:34;;;;;;;78.28;34.28;;;9.10;99.90;;;;;;4651287;30;20224;-78
2023/02/22 05:53:00;;;;;;;81.55;35.10;;;9.20;99.90;;;;;;4651154;30;20510;-77
2023/02/22 05:55:26;;;;;;;78.20;35.00;;;9.10;99.90;;;;;;4652316;30;20193;-77
2023/02/22 05:57:53;;;;;;;82.43;35.25;;;9.20;99.90;;;;;;4652395;30;20315;-77
2023/02/22 06:00:25;;;;;;;83.07;35.90;;;9.20;99.90;;;;;;4651679;30;20205;-79
2023/02/22 06:03:06;;;;;;;84.05;36.47;;;9.10;99.90;;;;;;4649923;30;20631;-82
2023/02/22 06:05:33;;;;;;;84.85;35.90;;;9.10;99.90;;;;;;4649919;30;20261;-76
2023/02/22 06:08:01;;;;;;;87.72;38.40;;;9.10;99.90;;;;;;4652703;30;20205;-79
2023/02/22 06:10:26;;;;;;;85.72;36.13;;;9.10;99.90;;;;;;4653173;30;20675;-77
2023/02/22 06:12:53;;;;;;;85.85;36.80;;;9.10;99.90;;;;;;4649061;30;20275;-77
2023/02/22 06:15:21;;;;;;;91.68;39.28;;;9.10;99.90;;;;;;4646230;30;20198;-77
2023/02/22 06:17:47;;;;;;;91.45;37.47;;;9.10;99.90;;;;;;4653732;30;20323;-81
2023/02/22 06:20:16;;;;;;;95.50;40.05;;;9.10;99.90;;;;;;4652337;30;20216;-76
2023/02/22 06:22:41;;;;;;;97.53;42.35;;;9.10;99.90;;;;;;4637808;30;20181;-76
2023/02/22 06:25:08;;;;;;;98.15;43.03;;;9.10;99.90;;;;;;4652580;30;20925;-79
2023/02/22 06:27:34;;;;;;;98.32;40.83;;;9.10;99.90;;;;;;4654988;30;20214;-76
2023/02/22 06:30:01;;;;;;;96.88;41.30;;;9.10;99.90;;;;;;4652957;30;20715;-75
2023/02/22 06:32:27;;;;;;;92.40;39.67;;;9.10;99.90;;;;;;4652225;30;20319;-75
2023/02/22 06:34:53;;;;;;;99.00;40.70;;;9.10;99.90;;;;;;4636200;30;20203;-75
2023/02/22 06:37:19;;;;;;;93.00;40.78;;;9.10;99.90;;;;;;4636537;30;20197;-75
2023/02/22 06:39:44;;;;;;;93.45;40.92;;;9.00;99.90;;;;;;4637928;30;20226;-74
2023/02/22 06:42:10;;;;;;;102.05;42.25;;;9.00;99.90;;;;;;4637779;30;20205;-78
2023/02/22 06:44:36;;;;;;;98.63;41.25;;;9.00;99.90;;;;;;4654337;30;20675;-80
2023/02/22 06:47:01;;;;;;;100.15;41.42;;;9.00;99.90;;;;;;4639423;30;20277;-76
2023/02/22 06:49:27;;;;;;;101.53;43.03;;;9.00;99.90;;;;;;4654210;30;20575;-77
2023/02/22 06:51:53;;;;;;;110.50;44.33;;;9.00;99.90;;;;;;4656499;30;20213;-75
2023/02/22 06:54:20;;;;;;;98.93;42.15;;;9.00;99.90;;;;;;4657138;30;20268;-76
2023/02/22 06:56:46;;;;;;;105.22;43.60;;;9.00;99.90;;;;;;4657294;30;20193;-75
2023/02/22 06:59:12;;;;;;;108.28;44.08;;;9.00;99.90;;;;;;4654795;30;21673;-81
2023/02/22 07:01:41;;;;;;;99.60;41.58;;;9.00;99.90;;;;;;4654806;30;20540;-78
2023/02/22 07:04:07;;;;;;;99.35;42.17;;;8.90;99.90;;;;;;4631968;30;20246;-77
2023/02/22 07:06:33;;;;;;;103.68;42.97;;;8.90;99.90;;;;;;4642907;30;20213;-77
2023/02/22 07:08:59;;;;;;;107.30;45.05;;;8.90;99.90;;;;;;4656215;30;20837;-75
2023/02/22 07:11:26;;;;;;;108.35;45.33;;;8.90;99.90;;;;;;4653035;30;20192;-79
2023/02/22 07:13:51;;;;;;;113.75;46.45;;;8.90;99.90;;;;;;4653120;30;20216;-77
2023/02/22 07:16:17;;;;;;;102.75;42.35;;;8.90;99.90;;;;;;4637827;30;20256;-79
2023/02/22 07:18:43;;;;;;;114.63;46.42;;;8.90;99.90;;;;;;4638429;30;20240;-76
2023/02/22 07:21:09;;;;;;;109.38;45.42;;;8.90;99.90;;;;;;4651423;30;20206;-78
2023/02/22 07:23:35;;;;;;;117.90;48.30;;;8.90;99.90;;;;;;4648059;30;20197;-77
2023/02/22 07:26:04;;;;;;;117.13;47.47;;;8.90;99.90;;;;;;4651939;30;20655;-79
2023/02/22 07:28:30;;;;;;;115.95;47.28;;;8.80;99.90;;;;;;4653050;30;20215;-76
2023/02/22 07:30:56;;;;;;;122.57;47.03;;;8.90;99.90;;;;;;4650629;30;20244;-77
2023/02/22 07:33:22;;;;;;;120.57;47.78;;;8.80;99.90;;;;;;4651046;30;20768;-79
2023/02/22 07:35:49;;;;;;;115.85;46.85;;;8.80;99.90;;;;;;4652085;30;20207;-80
2023/02/22 07:38:17;;;;;;;113.28;46.60;;;8.80;99.90;;;;;;4638784;30;20701;-75
2023/02/22 07:40:43;;;;;;;119.68;46.95;;;8.80;99.90;;;;;;4652169;30;20944;-74
2023/02/22 07:43:19;;;;;;;116.03;46.20;;;8.70;99.90;;;;;;4649937;30;20201;-75
2023/02/22 07:45:46;;;;;;;125.72;48.35;;;8.70;99.90;;;;;;4636683;30;20197;-78
2023/02/22 07:48:12;;;;;;;120.38;47.47;;;8.70;99.90;;;;;;4652804;30;20212;-76
2023/02/22 07:50:39;;;;;;;123.40;48.58;;;8.70;99.90;;;;;;4652595;30;20215;-74
2023/02/22 07:53:09;;;;;;;126.25;48.72;;;8.70;99.90;;;;;;4650024;30;21590;-75
2023/02/22 07:55:35;;;;;;;121.35;47.72;;;8.70;99.90;;;;;;4651858;30;20258;-75
2023/02/22 07:58:04;;;;;;;120.07;46.35;;;8.70;99.90;;;;;;4654633;30;20640;-77
2023/02/22 08:00:38;;;;;;;115.72;46.95;;;8.70;99.90;;;;;;4656871;30;20205;-74
2023/02/22 08:03:07;;;;;;;130.65;48.75;;;8.70;99.90;;;;;;4649328;30;20656;-75
2023/02/22 08:05:34;;;;;;;125.38;48.60;;;8.70;99.90;;;;;;4656050;30;21192;-77
2023/02/22 08:08:01;;;;;;;123.55;47.00;;;8.60;99.90;;;;;;4656806;30;20199;-75
2023/02/22 08:10:27;;;;;;;127.70;47.00;;;8.60;99.90;;;;;;4655705;30;20209;-79
2023/02/22 08:12:54;;;;;;;121.30;48.47;;;8.60;99.90;;;;;;4653881;30;20205;-75
2023/02/22 08:15:23;;;;;;;126.22;48.65;;;8.60;99.90;;;;;;4651692;30;20194;-78
2023/02/22 08:17:49;;;;;;;125.10;48.35;;;8.60;99.90;;;;;;4653779;30;20311;-78
2023/02/22 08:20:15;;;;;;;127.75;49.83;;;8.60;99.90;;;;;;4639965;30;20692;-78
2023/02/22 08:22:44;;;;;;;124.60;50.47;;;8.70;99.90;;;;;;4646013;30;20207;-75
2023/02/22 08:25:11;;;;;;;127.13;48.63;;;8.70;99.90;;;;;;4650276;30;20197;-79
2023/02/22 08:27:37;;;;;;;124.78;49.75;;;8.70;99.90;;;;;;4654661;30;20202;-78
2023/02/22 08:30:04;;;;;;;125.72;50.78;;;8.80;99.90;;;;;;4654599;30;20717;-78
2023/02/22 08:32:30;;;;;;;121.88;48.15;;;8.80;99.90;;;;;;4653804;30;20236;-79
2023/02/22 08:34:55;;;;;;;133.50;51.35;;;8.80;99.90;;;;;;4652037;30;20205;-76
2023/02/22 08:37:21;;;;;;;126.07;48.95;;;8.80;99.90;;;;;;4650559;30;20272;-74
2023/02/22 08:39:47;;;;;;;137.80;51.92;;;8.90;99.90;;;;;;4654195;30;20201;-78
2023/02/22 08:42:13;;;;;;;129.00;51.22;;;8.90;99.90;;;;;;4653899;30;20192;-76
2023/02/22 08:44:39;;;;;;;121.75;49.13;;;8.90;99.90;;;;;;4653143;30;20699;-77
2023/02/22 08:47:06;;;;;;;131.13;48.17;;;8.90;99.90;;;;;;4652947;30;20216;-76
2023/02/22 08:49:32;;;;;;;127.97;52.30;;;8.90;99.90;;;;;;4651152;30;20293;-77
2023/02/22 08:51:58;;;;;;;131.35;51.83;;;8.90;99.90;;;;;;4635331;30;20217;-77
2023/02/22 08:54:24;;;;;;;126.85;51.92;;;8.90;99.90;;;;;;4652203;30;20202;-77
2023/02/22 08:56:50;;;;;;;121.82;50.60;;;9.00;99.90;;;;;;4638322;30;20207;-79
2023/02/22 08:59:16;;;;;;;118.20;47.30;;;8.90;99.90;;;;;;4653221;30;20247;-76
2023/02/22 09:01:42;;;;;;;122.32;48.80;;;9.00;99.90;;;;;;4653096;30;20205;-80
2023/02/22 09:04:08;;;;;;;120.95;49.78;;;9.00;99.90;;;;;;4653162;30;20251;-79
2023/02/22 09:06:34;;;;;;;125.45;49.92;;;9.00;99.90;;;;;;4648532;30;20881;-78
2023/02/22 09:09:00;;;;;;;121.20;48.17;;;9.00;99.90;;;;;;4654484;30;20765;-80
2023/02/22 09:11:26;;;;;;;121.80;48.33;;;9.00;99.90;;;;;;4655237;30;20264;-75
2023/02/22 09:13:52;;;;;;;109.88;45.55;;;9.10;99.90;;;;;;4652858;30;20251;-75
2023/02/22 09:16:18;;;;;;;112.32;45.80;;;9.00;99.90;;;;;;4640359;30;20205;-79
2023/02/22 09:18:44;;;;;;;114.63;44.78;;;9.00;99.90;;;;;;4634797;30;20248;-78
2023/02/22 09:21:10;;;;;;;111.65;46.95;;;9.10;99.90;;;;;;4653652;30;20215;-73
2023/02/22 09:23:36;;;;;;;118.90;48.00;;;9.00;99.90;;;;;;4639623;30;22647;-80
2023/02/22 09:26:02;;;;;;;120.63;45.90;;;9.00;99.90;;;;;;4633946;30;20532;-76
2023/02/22 09:28:28;;;;;;;115.15;47.22;;;9.00;99.90;;;;;;4651027;30;20204;-74
2023/02/22 09:30:54;;;;;;;120.13;48.40;;;9.00;99.90;;;;;;4652540;30;20787;-79
2023/02/22 09:33:20;;;;;;;119.75;47.55;;;9.00;99.90;;;;;;4652930;30;20649;-78
2023/02/22 09:35:48;;;;;;;120.45;47.33;;;9.10;99.90;;;;;;4653737;30;20232;-80
2023/02/22 09:38:17;;;;;;;113.40;47.15;;;9.10;99.90;;;;;;4635120;30;20240;-81
2023/02/22 09:40:54;;;;;;;102.10;42.97;;;9.10;99.90;;;;;;4650554;30;20331;-74
2023/02/22 09:44:14;;;;;;;113.30;46.80;;;9.10;99.90;;;;;;4653529;30;20250;-79
2023/02/22 09:46:44;;;;;;;115.68;46.00;;;9.20;99.90;;;;;;4579780;31;20340;-75
2023/02/22 09:49:47;;;;;;;121.28;48.00;;;9.10;99.90;;;;;;4640567;30;20253;-75
2023/02/22 09:52:24;;;;;;;116.90;46.53;;;9.20;99.90;;;;;;4650009;30;20210;-75
2023/02/22 09:55:06;;;;;;;121.45;48.30;;;9.20;99.90;;;;;;4653136;30;20197;-77
2023/02/22 09:57:39;;;;;;;120.20;48.70;;;9.20;99.90;;;;;;4653902;30;20193;-83
2023/02/22 10:00:20;;;;;;;118.00;46.22;;;9.20;99.90;;;;;;4649673;30;20197;-75
2023/02/22 10:03:13;;;;;;;114.72;46.40;;;9.20;99.90;;;;;;4654679;30;20656;-76
2023/02/22 10:05:42;;;;;;;115.13;46.60;;;9.20;99.90;;;;;;4653017;30;20190;-75
2023/02/22 10:08:17;;;;;;;115.00;47.42;;;9.20;99.90;;;;;;4653466;30;20208;-75
2023/02/22 10:10:47;;;;;;;118.50;47.15;;;9.20;99.90;;;;;;4651838;30;20204;-78
2023/02/22 10:13:57;;;;;;;115.40;47.70;;;9.30;99.90;;;;;;4653378;30;20189;-75
2023/02/22 10:16:47;;;;;;;121.20;46.20;;;9.20;99.90;;;;;;4632012;30;20843;-79
2023/02/22 10:19:21;;;;;;;114.25;44.88;;;9.20;99.90;;;;;;4653037;30;21008;-80
2023/02/22 10:22:16;;;;;;;119.57;46.50;;;9.30;99.90;;;;;;4647308;30;20196;-77
2023/02/22 10:25:03;;;;;;;115.45;45.20;;;9.30;99.90;;;;;;4653353;30;20208;-78
2023/02/22 10:27:34;;;;;;;119.13;44.72;;;9.30;99.90;;;;;;4639738;30;20201;-81
2023/02/22 10:30:04;;;;;;;111.80;44.50;;;9.40;99.90;;;;;;4651238;30;20657;-78
2023/02/22 10:33:00;;;;;;;114.53;44.33;;;9.40;99.90;;;;;;4654513;30;20771;-75
2023/02/22 10:35:31;;;;;;;113.20;44.67;;;9.40;99.90;;;;;;4649447;30;20299;-77
2023/02/22 10:38:01;;;;;;;117.55;44.83;;;9.40;99.90;;;;;;4656213;30;20209;-79
2023/02/22 10:40:33;;;;;;;113.80;45.17;;;9.50;99.90;;;;;;4638207;30;20284;-77
2023/02/22 10:43:03;;;;;;;102.35;43.22;;;9.40;99.90;;;;;;4648302;30;20895;-75
2023/02/22 10:45:31;;;;;;;113.65;44.38;;;9.50;99.90;;;;;;4653799;30;20212;-74
2023/02/22 10:48:02;;;;;;;104.97;44.00;;;9.50;99.90;;;;;;4651432;30;20454;-77
2023/02/22 10:50:29;;;;;;;121.50;46.30;;;9.50;99.90;;;;;;4650985;30;20221;-79
2023/02/22 10:52:55;;;;;;;113.75;44.92;;;9.50;99.90;;;;;;4649632;30;20223;-75
2023/02/22 10:55:21;;;;;;;113.60;45.95;;;9.50;99.90;;;;;;4648078;30;20204;-79
2023/02/22 10:57:50;;;;;;;112.90;45.75;;;9.50;99.90;;;;;;4649553;30;21057;-79
2023/02/22 11:00:25;;;;;;;109.30;43.88;;;9.50;99.90;;;;;;4651315;30;20201;-76
2023/02/22 11:02:54;;;;;;;119.15;45.92;;;9.60;99.90;;;;;;4639196;30;20241;-78
2023/02/22 11:05:27;;;;;;;114.63;46.13;;;9.60;99.90;;;;;;4653342;30;20189;-76
2023/02/22 11:08:13;;;;;;;122.30;46.78;;;9.60;99.90;;;;;;4652034;30;20205;-78
2023/02/22 11:10:39;;;;;;;115.43;46.00;;;9.70;99.90;;;;;;4651675;30;20230;-78
2023/02/22 11:13:24;;;;;;;114.60;45.85;;;9.70;99.90;;;;;;4649451;30;20217;-77
2023/02/22 11:15:52;;;;;;;112.47;45.33;;;9.80;99.90;;;;;;4652396;30;20197;-74
2023/02/22 11:18:28;;;;;;;107.80;43.60;;;9.80;99.90;;;;;;4650671;30;20232;-78
2023/02/22 11:21:10;;;;;;;108.35;44.78;;;9.80;99.90;;;;;;4651532;30;22857;-77
2023/02/22 11:23:38;;;;;;;115.38;46.53;;;9.90;99.90;;;;;;4651828;30;20216;-75
2023/02/22 11:26:08;;;;;;;104.70;42.58;;;9.90;99.90;;;;;;4649028;30;20200;-77
2023/02/22 11:28:34;;;;;;;113.72;45.97;;;10.10;99.90;;;;;;4652786;30;20192;-74
2023/02/22 11:31:14;;;;;;;106.93;43.53;;;10.10;99.90;;;;;;4641487;30;20636;-77
2023/02/22 11:33:54;;;;;;;105.20;43.42;;;10.20;99.90;;;;;;4639510;30;20287;-75
2023/02/22 11:36:39;;;;;;;105.18;43.88;;;10.40;99.90;;;;;;4655375;30;20275;-76
2023/02/22 11:39:33;;;;;;;100.40;43.08;;;10.50;99.90;;;;;;4655176;30;20228;-77
2023/02/22 11:42:26;;;;;;;107.72;44.10;;;10.70;99.90;;;;;;4656337;30;20685;-79
2023/02/22 11:45:26;;;;;;;105.32;42.65;;;10.80;99.90;;;;;;4655101;30;20292;-78
2023/02/22 11:47:53;;;;;;;116.22;42.78;;;10.90;99.90;;;;;;4620123;30;20323;-75
2023/02/22 11:50:49;;;;;;;106.20;42.88;;;10.90;99.90;;;;;;4654866;30;20668;-76
2023/02/22 11:53:33;;;;;;;110.47;43.10;;;10.90;99.90;;;;;;4654814;30;20259;-79
2023/02/22 11:56:04;;;;;;;103.07;41.38;;;11.00;99.90;;;;;;4651535;30;20620;-74
2023/02/22 11:58:48;;;;;;;103.05;40.83;;;11.00;99.90;;;;;;4653209;30;20798;-79
2023/02/22 12:01:46;;;;;;;101.65;40.80;;;11.00;99.90;;;;;;4653464;30;20202;-76
2023/02/22 12:04:40;;;;;;;102.30;39.95;;;10.90;99.90;;;;;;4655198;30;20205;-80
2023/02/22 12:07:23;;;;;;;105.50;40.55;;;10.90;99.90;;;;;;4651974;30;20205;-77
2023/02/22 12:10:17;;;;;;;100.72;39.17;;;10.90;99.90;;;;;;4655316;30;20249;-75
2023/02/22 12:13:03;;;;;;;99.78;39.67;;;10.80;99.90;;;;;;4654211;30;20275;-80
2023/02/22 12:15:43;;;;;;;92.40;37.33;;;10.80;99.90;;;;;;4655071;30;20220;-77
2023/02/22 12:18:33;;;;;;;93.35;36.67;;;10.70;99.90;;;;;;4654804;30;21907;-75
2023/02/22 12:21:09;;;;;;;92.97;35.47;;;10.60;99.90;;;;;;4654547;30;20189;-75
2023/02/22 12:24:01;;;;;;;90.10;34.17;;;10.60;99.90;;;;;;4645195;30;20232;-77
2023/02/22 12:26:37;;;;;;;92.03;35.15;;;10.60;99.90;;;;;;4653317;30;20311;-74
2023/02/22 12:29:21;;;;;;;86.95;34.25;;;10.50;99.90;;;;;;4652647;30;20216;-78
2023/02/22 12:32:10;;;;;;;91.47;34.28;;;10.50;99.90;;;;;;4653785;30;20249;-77
2023/02/22 12:34:51;;;;;;;90.65;34.60;;;10.40;99.90;;;;;;4654474;30;20200;-79
2023/02/22 12:37:30;;;;;;;86.07;34.55;;;10.50;99.90;;;;;;4653915;30;20215;-77
2023/02/22 12:40:22;;;;;;;92.65;34.75;;;10.60;99.90;;;;;;4654200;30;20225;-75
2023/02/22 12:43:21;;;;;;;86.97;34.17;;;10.60;99.90;;;;;;4654407;30;20212;-75
2023/02/22 12:46:02;;;;;;;91.53;36.45;;;10.70;99.90;;;;;;4654233;30;20685;-78
2023/02/22 12:48:44;;;;;;;90.80;35.97;;;10.80;99.90;;;;;;4649815;30;20766;-78
2023/02/22 12:51:31;;;;;;;95.50;37.25;;;10.90;99.90;;;;;;4654593;30;20742;-77
2023/02/22 12:54:31;;;;;;;98.50;38.30;;;11.10;99.90;;;;;;4654834;30;20195;-76